sensor_id;sensor_type;location;lat;lon;timestamp;temperature;humidity
21815;DHT22;11069;48.988;8.450;2023-11-22T00:00:08;7.60;99.90
21815;DHT22;11069;48.988;8.450;2023-11-22T00:02:34;7.60;99.90
21815;DHT22;11069;48.988;8.450;2023-11-22T00:05:00;7.60;99.90
21815;DHT22;11069;48.988;8.450;2023-11-22T00:07:26;7.60;99.90
21815;DHT22;11069;48.988;8.450;2023-11-22T00:09:55;7.50;99.90
21815;DHT22;11069;48.988;8.450;2023-11-22T00:12:21;7.50;99.90
21815;DHT22;11069;48.988;8.450;2023-11-22T00:14:48;7.50;99.90
21815;DHT22;11069;48.988;8.450;2023-11-22T00:17:14;7.40;99.90
21815;DHT22;11069;48.988;8.450;2023-11-22T00:19:43;7.40;99.90
21815;DHT22;11069;48.988;8.450;2023-11-22T00:22:10;7.30;99.90
21815;DHT22;11069;48.988;8.450;2023-11-22T00:24:40;7.20;99.90
21815;DHT22;11069;48.988;8.450;2023-11-22T00:27:06;7.10;99.90
21815;DHT22;11069;48.988;8.450;2023-11-22T00:29:32;7.10;99.90
21815;DHT22;11069;48.988;8.450;2023-11-22T00:31:58;7.00;99.90
21815;DHT22;11069;48.988;8.450;2023-11-22T00:34:24;7.00;99.90
21815;DHT22;11069;48.988;8.450;2023-11-22T00:36:50;6.90;99.90
21815;DHT22;11069;48.988;8.450;2023-11-22T00:39:19;6.80;99.90
21815;DHT22;11069;48.988;8.450;2023-11-22T00:41:45;6.60;99.90
21815;DHT22;11069;48.988;8.450;2023-11-22T00:44:11;6.60;99.90
21815;DHT22;11069;48.988;8.450;2023-11-22T00:46:36;6.60;99.90
21815;DHT22;11069;48.988;8.450;2023-11-22T00:49:05;6.50;99.90
21815;DHT22;11069;48.988;8.450;2023-11-22T00:51:31;6.40;99.90
21815;DHT22;11069;48.988;8.450;2023-11-22T00:54:00;6.40;99.90
21815;DHT22;11069;48.988;8.450;2023-11-22T00:56:26;6.30;99.90
21815;DHT22;11069;48.988;8.450;2023-11-22T00:58:52;6.20;99.90
21815;DHT22;11069;48.988;8.450;2023-11-22T01:01:19;6.20;99.90
21815;DHT22;11069;48.988;8.450;2023-11-22T01:03:45;6.10;99.90
21815;DHT22;11069;48.988;8.450;2023-11-22T01:06:12;6.10;99.90
21815;DHT22;11069;48.988;8.450;2023-11-22T01:08:38;6.10;99.90
21815;DHT22;11069;48.988;8.450;2023-11-22T01:11:04;6.10;99.90
21815;DHT22;11069;48.988;8.450;2023-11-22T01:13:31;6.00;99.90
21815;DHT22;11069;48.988;8.450;2023-11-22T01:15:58;6.00;99.90
21815;DHT22;11069;48.988;8.450;2023-11-22T01:18:24;6.00;99.90
21815;DHT22;11069;48.988;8.450;2023-11-22T01:20:49;6.00;99.90
21815;DHT22;11069;48.988;8.450;2023-11-22T01:23:15;6.00;99.90
21815;DHT22;11069;48.988;8.450;2023-11-22T01:25:40;5.90;99.90
21815;DHT22;11069;48.988;8.450;2023-11-22T01:28:06;5.90;99.90
21815;DHT22;11069;48.988;8.450;2023-11-22T01:30:36;5.90;99.90
21815;DHT22;11069;48.988;8.450;2023-11-22T01:33:03;5.70;99.90
21815;DHT22;11069;48.988;8.450;2023-11-22T01:35:28;5.80;99.90
21815;DHT22;11069;48.988;8.450;2023-11-22T01:37:54;5.60;99.90
21815;DHT22;11069;48.988;8.450;2023-11-22T01:40:21;5.60;99.90
21815;DHT22;11069;48.988;8.450;2023-11-22T01:42:48;5.50;99.90
21815;DHT22;11069;48.988;8.450;2023-11-22T01:45:13;5.50;99.90
21815;DHT22;11069;48.988;8.450;2023-11-22T01:47:39;5.50;99.90
21815;DHT22;11069;48.988;8.450;2023-11-22T01:50:06;5.50;99.90
21815;DHT22;11069;48.988;8.450;2023-11-22T01:52:33;5.50;99.90
21815;DHT22;11069;48.988;8.450;2023-11-22T01:55:01;5.50;99.90
21815;DHT22;11069;48.988;8.450;2023-11-22T01:57:31;5.50;99.90
21815;DHT22;11069;48.988;8.450;2023-11-22T01:59:58;5.40;99.90
21815;DHT22;11069;48.988;8.450;2023-11-22T02:02:23;5.30;99.90
21815;DHT22;11069;48.988;8.450;2023-11-22T02:04:49;5.20;99.90
21815;DHT22;11069;48.988;8.450;2023-11-22T02:07:15;5.10;99.90
21815;DHT22;11069;48.988;8.450;2023-11-22T02:09:41;5.10;99.90
21815;DHT22;11069;48.988;8.450;2023-11-22T02:12:07;5.10;99.90
21815;DHT22;11069;48.988;8.450;2023-11-22T02:14:33;5.00;99.90
21815;DHT22;11069;48.988;8.450;2023-11-22T02:16:59;5.00;99.90
21815;DHT22;11069;48.988;8.450;2023-11-22T02:19:25;5.00;99.90
21815;DHT22;11069;48.988;8.450;2023-11-22T02:21:51;5.00;99.90
21815;DHT22;11069;48.988;8.450;2023-11-22T02:24:17;5.10;99.90
21815;DHT22;11069;48.988;8.450;2023-11-22T02:26:44;5.00;99.90
21815;DHT22;11069;48.988;8.450;2023-11-22T02:29:11;4.90;99.90
21815;DHT22;11069;48.988;8.450;2023-11-22T02:31:38;4.90;99.90
21815;DHT22;11069;48.988;8.450;2023-11-22T02:34:04;4.90;99.90
21815;DHT22;11069;48.988;8.450;2023-11-22T02:36:30;4.90;99.90
21815;DHT22;11069;48.988;8.450;2023-11-22T02:38:56;4.80;99.90
21815;DHT22;11069;48.988;8.450;2023-11-22T02:41:22;4.90;99.90
21815;DHT22;11069;48.988;8.450;2023-11-22T02:43:47;4.80;99.90
21815;DHT22;11069;48.988;8.450;2023-11-22T02:46:13;4.80;99.90
21815;DHT22;11069;48.988;8.450;2023-11-22T02:48:39;4.80;99.90
21815;DHT22;11069;48.988;8.450;2023-11-22T02:51:04;4.80;99.90
21815;DHT22;11069;48.988;8.450;2023-11-22T02:53:32;4.90;99.90
21815;DHT22;11069;48.988;8.450;2023-11-22T02:56:01;4.90;99.90
21815;DHT22;11069;48.988;8.450;2023-11-22T02:58:30;4.90;99.90
21815;DHT22;11069;48.988;8.450;2023-11-22T03:00:56;4.80;99.90
21815;DHT22;11069;48.988;8.450;2023-11-22T03:03:23;4.80;99.90
21815;DHT22;11069;48.988;8.450;2023-11-22T03:05:49;4.90;99.90
21815;DHT22;11069;48.988;8.450;2023-11-22T03:08:16;4.80;99.90
21815;DHT22;11069;48.988;8.450;2023-11-22T03:10:41;4.80;99.90
21815;DHT22;11069;48.988;8.450;2023-11-22T03:13:07;4.90;99.90
21815;DHT22;11069;48.988;8.450;2023-11-22T03:15:34;4.80;99.90
21815;DHT22;11069;48.988;8.450;2023-11-22T03:18:00;4.80;99.90
21815;DHT22;11069;48.988;8.450;2023-11-22T03:20:27;4.90;99.90
21815;DHT22;11069;48.988;8.450;2023-11-22T03:22:52;4.90;99.90
21815;DHT22;11069;48.988;8.450;2023-11-22T03:25:18;4.90;99.90
21815;DHT22;11069;48.988;8.450;2023-11-22T03:27:44;4.90;99.90
21815;DHT22;11069;48.988;8.450;2023-11-22T03:30:10;4.90;99.90
21815;DHT22;11069;48.988;8.450;2023-11-22T03:32:38;4.90;99.90
21815;DHT22;11069;48.988;8.450;2023-11-22T03:35:05;4.90;99.90
21815;DHT22;11069;48.988;8.450;2023-11-22T03:37:32;5.00;99.90
21815;DHT22;11069;48.988;8.450;2023-11-22T03:39:58;5.00;99.90
21815;DHT22;11069;48.988;8.450;2023-11-22T03:42:23;4.90;99.90
21815;DHT22;11069;48.988;8.450;2023-11-22T03:44:49;4.80;99.90
21815;DHT22;11069;48.988;8.450;2023-11-22T03:47:15;4.80;99.90
21815;DHT22;11069;48.988;8.450;2023-11-22T03:49:41;4.80;99.90
21815;DHT22;11069;48.988;8.450;2023-11-22T03:52:09;4.80;99.90
21815;DHT22;11069;48.988;8.450;2023-11-22T03:54:35;4.80;99.90
21815;DHT22;11069;48.988;8.450;2023-11-22T03:57:00;4.80;99.90
21815;DHT22;11069;48.988;8.450;2023-11-22T03:59:26;4.90;99.90
21815;DHT22;11069;48.988;8.450;2023-11-22T04:01:52;5.00;99.90
21815;DHT22;11069;48.988;8.450;2023-11-22T04:04:17;4.90;99.90
21815;DHT22;11069;48.988;8.450;2023-11-22T04:06:44;5.00;99.90
21815;DHT22;11069;48.988;8.450;2023-11-22T04:09:10;4.90;99.90
21815;DHT22;11069;48.988;8.450;2023-11-22T04:11:38;4.90;99.90
21815;DHT22;11069;48.988;8.450;2023-11-22T04:14:04;4.90;99.90
21815;DHT22;11069;48.988;8.450;2023-11-22T04:16:29;4.80;99.90
21815;DHT22;11069;48.988;8.450;2023-11-22T04:18:55;4.80;99.90
21815;DHT22;11069;48.988;8.450;2023-11-22T04:21:20;4.80;99.90
21815;DHT22;11069;48.988;8.450;2023-11-22T04:23:46;4.80;99.90
21815;DHT22;11069;48.988;8.450;2023-11-22T04:26:13;4.70;99.90
21815;DHT22;11069;48.988;8.450;2023-11-22T04:28:39;4.70;99.90
21815;DHT22;11069;48.988;8.450;2023-11-22T04:31:05;4.70;99.90
21815;DHT22;11069;48.988;8.450;2023-11-22T04:33:30;4.60;99.90
21815;DHT22;11069;48.988;8.450;2023-11-22T04:35:56;4.50;99.90
21815;DHT22;11069;48.988;8.450;2023-11-22T04:38:22;4.50;99.90
21815;DHT22;11069;48.988;8.450;2023-11-22T04:40:47;4.40;99.90
21815;DHT22;11069;48.988;8.450;2023-11-22T04:43:13;4.30;99.90
21815;DHT22;11069;48.988;8.450;2023-11-22T04:45:39;4.20;99.90
21815;DHT22;11069;48.988;8.450;2023-11-22T04:48:05;4.10;99.90
21815;DHT22;11069;48.988;8.450;2023-11-22T04:50:32;4.00;99.90
21815;DHT22;11069;48.988;8.450;2023-11-22T04:52:57;3.90;99.90
21815;DHT22;11069;48.988;8.450;2023-11-22T04:55:23;3.90;99.90
21815;DHT22;11069;48.988;8.450;2023-11-22T04:57:49;3.90;99.90
21815;DHT22;11069;48.988;8.450;2023-11-22T05:00:15;3.80;99.90
21815;DHT22;11069;48.988;8.450;2023-11-22T05:02:41;3.90;99.90
21815;DHT22;11069;48.988;8.450;2023-11-22T05:05:07;3.80;99.90
21815;DHT22;11069;48.988;8.450;2023-11-22T05:07:35;3.70;99.90
21815;DHT22;11069;48.988;8.450;2023-11-22T05:10:01;3.70;99.90
21815;DHT22;11069;48.988;8.450;2023-11-22T05:12:28;3.60;99.90
21815;DHT22;11069;48.988;8.450;2023-11-22T05:14:53;3.50;99.90
21815;DHT22;11069;48.988;8.450;2023-11-22T05:17:19;3.40;99.90
21815;DHT22;11069;48.988;8.450;2023-11-22T05:19:45;3.40;99.90
21815;DHT22;11069;48.988;8.450;2023-11-22T05:22:11;3.30;99.90
21815;DHT22;11069;48.988;8.450;2023-11-22T05:24:36;3.30;99.90
21815;DHT22;11069;48.988;8.450;2023-11-22T05:27:06;3.30;99.90
21815;DHT22;11069;48.988;8.450;2023-11-22T05:29:33;3.20;99.90
21815;DHT22;11069;48.988;8.450;2023-11-22T05:31:59;3.20;99.90
21815;DHT22;11069;48.988;8.450;2023-11-22T05:34:25;3.20;99.90
21815;DHT22;11069;48.988;8.450;2023-11-22T05:36:50;3.20;99.90
21815;DHT22;11069;48.988;8.450;2023-11-22T05:39:16;3.20;99.90
21815;DHT22;11069;48.988;8.450;2023-11-22T05:41:43;3.20;99.90
21815;DHT22;11069;48.988;8.450;2023-11-22T05:44:08;3.10;99.90
21815;DHT22;11069;48.988;8.450;2023-11-22T05:46:34;3.00;99.90
21815;DHT22;11069;48.988;8.450;2023-11-22T05:48:59;3.00;99.90
21815;DHT22;11069;48.988;8.450;2023-11-22T05:51:26;3.00;99.90
21815;DHT22;11069;48.988;8.450;2023-11-22T05:53:52;3.00;99.90
21815;DHT22;11069;48.988;8.450;2023-11-22T05:56:17;3.10;99.90
21815;DHT22;11069;48.988;8.450;2023-11-22T05:58:44;3.00;99.90
21815;DHT22;11069;48.988;8.450;2023-11-22T06:01:10;3.00;99.90
21815;DHT22;11069;48.988;8.450;2023-11-22T06:03:39;3.00;99.90
21815;DHT22;11069;48.988;8.450;2023-11-22T06:06:06;3.00;99.90
21815;DHT22;11069;48.988;8.450;2023-11-22T06:08:32;3.00;99.90
21815;DHT22;11069;48.988;8.450;2023-11-22T06:11:00;2.90;99.90
21815;DHT22;11069;48.988;8.450;2023-11-22T06:13:26;2.80;99.90
21815;DHT22;11069;48.988;8.450;2023-11-22T06:15:52;2.80;99.90
21815;DHT22;11069;48.988;8.450;2023-11-22T06:18:18;2.80;99.90
21815;DHT22;11069;48.988;8.450;2023-11-22T06:20:44;2.80;99.90
21815;DHT22;11069;48.988;8.450;2023-11-22T06:23:10;2.70;99.90
21815;DHT22;11069;48.988;8.450;2023-11-22T06:25:36;2.60;99.90
21815;DHT22;11069;48.988;8.450;2023-11-22T06:28:02;2.50;99.90
21815;DHT22;11069;48.988;8.450;2023-11-22T06:30:28;2.40;99.90
21815;DHT22;11069;48.988;8.450;2023-11-22T06:32:55;2.30;99.90
21815;DHT22;11069;48.988;8.450;2023-11-22T06:35:21;2.30;99.90
21815;DHT22;11069;48.988;8.450;2023-11-22T06:37:46;2.20;99.90
21815;DHT22;11069;48.988;8.450;2023-11-22T06:40:12;2.20;99.90
21815;DHT22;11069;48.988;8.450;2023-11-22T06:42:41;2.20;99.90
21815;DHT22;11069;48.988;8.450;2023-11-22T06:45:07;2.00;99.90
21815;DHT22;11069;48.988;8.450;2023-11-22T06:47:38;2.00;99.90
21815;DHT22;11069;48.988;8.450;2023-11-22T06:50:04;2.00;99.90
21815;DHT22;11069;48.988;8.450;2023-11-22T06:52:37;2.00;99.90
21815;DHT22;11069;48.988;8.450;2023-11-22T06:55:04;1.90;99.90
21815;DHT22;11069;48.988;8.450;2023-11-22T06:57:30;1.80;99.90
21815;DHT22;11069;48.988;8.450;2023-11-22T06:59:56;1.80;99.90
21815;DHT22;11069;48.988;8.450;2023-11-22T07:02:22;1.80;99.90
21815;DHT22;11069;48.988;8.450;2023-11-22T07:04:48;1.80;99.90
21815;DHT22;11069;48.988;8.450;2023-11-22T07:07:13;1.80;99.90
21815;DHT22;11069;48.988;8.450;2023-11-22T07:09:43;1.80;99.90
21815;DHT22;11069;48.988;8.450;2023-11-22T07:12:09;1.80;99.90
21815;DHT22;11069;48.988;8.450;2023-11-22T07:14:36;1.80;99.90
21815;DHT22;11069;48.988;8.450;2023-11-22T07:17:02;1.80;99.90
21815;DHT22;11069;48.988;8.450;2023-11-22T07:19:28;1.70;99.90
21815;DHT22;11069;48.988;8.450;2023-11-22T07:21:54;1.70;99.90
21815;DHT22;11069;48.988;8.450;2023-11-22T07:24:20;1.70;99.90
21815;DHT22;11069;48.988;8.450;2023-11-22T07:26:46;1.60;99.90
21815;DHT22;11069;48.988;8.450;2023-11-22T07:29:12;1.60;99.90
21815;DHT22;11069;48.988;8.450;2023-11-22T07:31:40;1.70;99.90
21815;DHT22;11069;48.988;8.450;2023-11-22T07:34:08;1.70;99.90
21815;DHT22;11069;48.988;8.450;2023-11-22T07:36:36;1.70;99.90
21815;DHT22;11069;48.988;8.450;2023-11-22T07:39:03;1.80;99.90
21815;DHT22;11069;48.988;8.450;2023-11-22T07:41:30;1.70;99.90
21815;DHT22;11069;48.988;8.450;2023-11-22T07:43:57;1.80;99.90
21815;DHT22;11069;48.988;8.450;2023-11-22T07:46:22;1.70;99.90
21815;DHT22;11069;48.988;8.450;2023-11-22T07:48:48;1.80;99.90
21815;DHT22;11069;48.988;8.450;2023-11-22T07:51:14;2.00;99.90
21815;DHT22;11069;48.988;8.450;2023-11-22T07:53:43;2.30;99.90
21815;DHT22;11069;48.988;8.450;2023-11-22T07:56:09;2.50;99.90
21815;DHT22;11069;48.988;8.450;2023-11-22T07:58:37;2.60;99.90
21815;DHT22;11069;48.988;8.450;2023-11-22T08:01:02;2.80;99.90
21815;DHT22;11069;48.988;8.450;2023-11-22T08:03:31;3.00;99.90
21815;DHT22;11069;48.988;8.450;2023-11-22T08:05:57;3.10;99.90
21815;DHT22;11069;48.988;8.450;2023-11-22T08:08:23;3.10;99.90
21815;DHT22;11069;48.988;8.450;2023-11-22T08:10:49;3.20;99.90
21815;DHT22;11069;48.988;8.450;2023-11-22T08:13:19;3.30;99.90
21815;DHT22;11069;48.988;8.450;2023-11-22T08:15:48;3.30;99.90
21815;DHT22;11069;48.988;8.450;2023-11-22T08:18:14;3.50;99.90
21815;DHT22;11069;48.988;8.450;2023-11-22T08:20:42;3.40;99.90
21815;DHT22;11069;48.988;8.450;2023-11-22T08:23:08;3.40;99.90
21815;DHT22;11069;48.988;8.450;2023-11-22T08:25:35;3.50;99.90
21815;DHT22;11069;48.988;8.450;2023-11-22T08:28:04;3.30;99.90
21815;DHT22;11069;48.988;8.450;2023-11-22T08:30:30;3.10;99.90
21815;DHT22;11069;48.988;8.450;2023-11-22T08:32:58;3.20;99.90
21815;DHT22;11069;48.988;8.450;2023-11-22T08:35:24;3.20;99.90
21815;DHT22;11069;48.988;8.450;2023-11-22T08:37:49;3.80;99.90
21815;DHT22;11069;48.988;8.450;2023-11-22T08:40:16;4.50;99.90
21815;DHT22;11069;48.988;8.450;2023-11-22T08:42:51;5.10;99.90
21815;DHT22;11069;48.988;8.450;2023-11-22T08:45:16;5.50;99.90
21815;DHT22;11069;48.988;8.450;2023-11-22T08:47:42;5.20;99.90
21815;DHT22;11069;48.988;8.450;2023-11-22T08:50:08;4.80;99.90
21815;DHT22;11069;48.988;8.450;2023-11-22T08:52:40;4.50;99.90
21815;DHT22;11069;48.988;8.450;2023-11-22T08:55:07;4.40;99.90
21815;DHT22;11069;48.988;8.450;2023-11-22T08:57:37;4.30;99.90
21815;DHT22;11069;48.988;8.450;2023-11-22T09:00:04;4.30;99.90
21815;DHT22;11069;48.988;8.450;2023-11-22T09:02:35;3.90;99.90
21815;DHT22;11069;48.988;8.450;2023-11-22T09:05:02;3.70;99.90
21815;DHT22;11069;48.988;8.450;2023-11-22T09:07:31;3.40;99.90
21815;DHT22;11069;48.988;8.450;2023-11-22T09:09:56;3.40;99.90
21815;DHT22;11069;48.988;8.450;2023-11-22T09:12:23;3.30;99.90
21815;DHT22;11069;48.988;8.450;2023-11-22T09:14:49;3.30;99.90
21815;DHT22;11069;48.988;8.450;2023-11-22T09:17:14;3.10;99.90
21815;DHT22;11069;48.988;8.450;2023-11-22T09:19:40;3.20;99.90
21815;DHT22;11069;48.988;8.450;2023-11-22T09:22:05;3.40;99.90
21815;DHT22;11069;48.988;8.450;2023-11-22T09:24:32;3.90;99.90
21815;DHT22;11069;48.988;8.450;2023-11-22T09:26:58;4.80;99.90
21815;DHT22;11069;48.988;8.450;2023-11-22T09:29:26;5.70;99.90
21815;DHT22;11069;48.988;8.450;2023-11-22T09:31:51;5.80;99.90
21815;DHT22;11069;48.988;8.450;2023-11-22T09:34:17;5.70;99.90
21815;DHT22;11069;48.988;8.450;2023-11-22T09:36:43;5.60;99.90
21815;DHT22;11069;48.988;8.450;2023-11-22T09:39:09;5.80;99.90
21815;DHT22;11069;48.988;8.450;2023-11-22T09:41:35;5.70;99.90
21815;DHT22;11069;48.988;8.450;2023-11-22T09:44:01;5.30;99.90
21815;DHT22;11069;48.988;8.450;2023-11-22T09:46:27;4.90;99.90
21815;DHT22;11069;48.988;8.450;2023-11-22T09:48:56;4.70;99.90
21815;DHT22;11069;48.988;8.450;2023-11-22T09:51:29;4.50;99.90
21815;DHT22;11069;48.988;8.450;2023-11-22T09:53:57;4.50;99.90
21815;DHT22;11069;48.988;8.450;2023-11-22T09:56:24;4.60;99.90
21815;DHT22;11069;48.988;8.450;2023-11-22T09:58:55;4.70;99.90
21815;DHT22;11069;48.988;8.450;2023-11-22T10:01:21;4.70;99.90
21815;DHT22;11069;48.988;8.450;2023-11-22T10:03:48;4.70;99.90
21815;DHT22;11069;48.988;8.450;2023-11-22T10:06:13;4.70;99.90
21815;DHT22;11069;48.988;8.450;2023-11-22T10:08:40;4.70;99.90
21815;DHT22;11069;48.988;8.450;2023-11-22T10:11:06;4.60;99.90
21815;DHT22;11069;48.988;8.450;2023-11-22T10:13:32;4.70;99.90
21815;DHT22;11069;48.988;8.450;2023-11-22T10:16:09;4.60;99.90
21815;DHT22;11069;48.988;8.450;2023-11-22T10:18:43;4.90;99.90
21815;DHT22;11069;48.988;8.450;2023-11-22T10:21:25;4.90;99.90
21815;DHT22;11069;48.988;8.450;2023-11-22T10:24:03;5.00;99.90
21815;DHT22;11069;48.988;8.450;2023-11-22T10:26:28;5.10;99.90
21815;DHT22;11069;48.988;8.450;2023-11-22T10:28:56;5.00;99.90
21815;DHT22;11069;48.988;8.450;2023-11-22T10:31:23;5.10;99.90
21815;DHT22;11069;48.988;8.450;2023-11-22T10:33:49;5.10;99.90
21815;DHT22;11069;48.988;8.450;2023-11-22T10:36:15;4.90;99.90
21815;DHT22;11069;48.988;8.450;2023-11-22T10:38:41;4.90;99.90
21815;DHT22;11069;48.988;8.450;2023-11-22T10:41:11;4.90;99.90
21815;DHT22;11069;48.988;8.450;2023-11-22T10:43:40;4.70;99.90
21815;DHT22;11069;48.988;8.450;2023-11-22T10:46:07;4.60;99.90
21815;DHT22;11069;48.988;8.450;2023-11-22T10:48:36;4.50;99.90
21815;DHT22;11069;48.988;8.450;2023-11-22T10:51:03;4.60;99.90
21815;DHT22;11069;48.988;8.450;2023-11-22T10:53:34;4.60;99.90
21815;DHT22;11069;48.988;8.450;2023-11-22T10:56:14;4.70;99.90
21815;DHT22;11069;48.988;8.450;2023-11-22T10:59:01;4.60;99.90
21815;DHT22;11069;48.988;8.450;2023-11-22T11:01:27;4.70;99.90
21815;DHT22;11069;48.988;8.450;2023-11-22T11:06:26;4.80;99.90
21815;DHT22;11069;48.988;8.450;2023-11-22T11:09:00;4.90;99.90
21815;DHT22;11069;48.988;8.450;2023-11-22T11:11:27;5.00;99.90
21815;DHT22;11069;48.988;8.450;2023-11-22T11:13:54;5.00;99.90
21815;DHT22;11069;48.988;8.450;2023-11-22T11:16:21;4.80;99.90
21815;DHT22;11069;48.988;8.450;2023-11-22T11:18:48;4.80;99.90
21815;DHT22;11069;48.988;8.450;2023-11-22T11:21:15;4.80;99.90
21815;DHT22;11069;48.988;8.450;2023-11-22T11:23:40;4.60;99.90
21815;DHT22;11069;48.988;8.450;2023-11-22T11:26:19;4.40;99.90
21815;DHT22;11069;48.988;8.450;2023-11-22T11:28:49;4.40;99.90
21815;DHT22;11069;48.988;8.450;2023-11-22T11:31:16;4.60;99.90
21815;DHT22;11069;48.988;8.450;2023-11-22T11:38:53;4.80;99.90
21815;DHT22;11069;48.988;8.450;2023-11-22T11:41:33;4.60;99.90
21815;DHT22;11069;48.988;8.450;2023-11-22T11:44:01;4.50;99.90
21815;DHT22;11069;48.988;8.450;2023-11-22T11:46:29;4.60;99.90
21815;DHT22;11069;48.988;8.450;2023-11-22T11:48:55;4.60;99.90
21815;DHT22;11069;48.988;8.450;2023-11-22T11:51:28;4.50;99.90
21815;DHT22;11069;48.988;8.450;2023-11-22T11:53:54;4.50;99.90
21815;DHT22;11069;48.988;8.450;2023-11-22T11:56:21;4.70;99.90
21815;DHT22;11069;48.988;8.450;2023-11-22T11:58:48;4.80;99.90
21815;DHT22;11069;48.988;8.450;2023-11-22T12:01:18;4.90;99.90
21815;DHT22;11069;48.988;8.450;2023-11-22T12:03:47;4.70;99.90
21815;DHT22;11069;48.988;8.450;2023-11-22T12:06:16;4.70;99.90
21815;DHT22;11069;48.988;8.450;2023-11-22T12:08:43;4.50;99.90
21815;DHT22;11069;48.988;8.450;2023-11-22T12:11:11;4.60;99.90
21815;DHT22;11069;48.988;8.450;2023-11-22T12:13:38;4.60;99.90
21815;DHT22;11069;48.988;8.450;2023-11-22T12:16:05;4.70;99.90
21815;DHT22;11069;48.988;8.450;2023-11-22T12:18:43;4.70;99.90
21815;DHT22;11069;48.988;8.450;2023-11-22T12:21:09;4.70;99.90
21815;DHT22;11069;48.988;8.450;2023-11-22T12:23:42;4.50;99.90
21815;DHT22;11069;48.988;8.450;2023-11-22T12:26:15;4.60;99.90
21815;DHT22;11069;48.988;8.450;2023-11-22T12:28:42;4.70;99.90
21815;DHT22;11069;48.988;8.450;2023-11-22T12:31:12;4.70;99.90
21815;DHT22;11069;48.988;8.450;2023-11-22T12:33:38;4.60;99.90
21815;DHT22;11069;48.988;8.450;2023-11-22T12:36:06;4.60;99.90
21815;DHT22;11069;48.988;8.450;2023-11-22T12:38:32;4.70;99.90
21815;DHT22;11069;48.988;8.450;2023-11-22T12:40:59;4.80;99.90
21815;DHT22;11069;48.988;8.450;2023-11-22T12:43:27;4.90;99.90
21815;DHT22;11069;48.988;8.450;2023-11-22T12:46:07;4.90;99.90
21815;DHT22;11069;48.988;8.450;2023-11-22T12:48:34;4.80;99.90
21815;DHT22;11069;48.988;8.450;2023-11-22T12:51:01;5.00;99.90
21815;DHT22;11069;48.988;8.450;2023-11-22T12:53:27;5.30;99.90
21815;DHT22;11069;48.988;8.450;2023-11-22T12:55:56;5.30;99.90
21815;DHT22;11069;48.988;8.450;2023-11-22T12:58:23;5.30;99.90
21815;DHT22;11069;48.988;8.450;2023-11-22T13:00:51;5.30;99.90
21815;DHT22;11069;48.988;8.450;2023-11-22T13:03:19;5.30;99.90
21815;DHT22;11069;48.988;8.450;2023-11-22T13:05:45;5.30;99.90
21815;DHT22;11069;48.988;8.450;2023-11-22T13:08:12;5.20;99.90
21815;DHT22;11069;48.988;8.450;2023-11-22T13:10:45;5.20;99.90
21815;DHT22;11069;48.988;8.450;2023-11-22T13:13:24;5.30;99.90
21815;DHT22;11069;48.988;8.450;2023-11-22T13:15:51;5.20;99.90
21815;DHT22;11069;48.988;8.450;2023-11-22T13:18:17;5.40;99.90
21815;DHT22;11069;48.988;8.450;2023-11-22T13:20:43;5.20;99.90
21815;DHT22;11069;48.988;8.450;2023-11-22T13:23:09;5.10;99.90
21815;DHT22;11069;48.988;8.450;2023-11-22T13:25:35;5.10;99.90
21815;DHT22;11069;48.988;8.450;2023-11-22T13:28:01;5.00;99.90
21815;DHT22;11069;48.988;8.450;2023-11-22T13:30:27;5.00;99.90
21815;DHT22;11069;48.988;8.450;2023-11-22T13:32:57;5.10;99.90
21815;DHT22;11069;48.988;8.450;2023-11-22T13:35:23;5.10;99.90
21815;DHT22;11069;48.988;8.450;2023-11-22T13:37:49;5.20;99.90
21815;DHT22;11069;48.988;8.450;2023-11-22T13:40:17;5.20;99.90
21815;DHT22;11069;48.988;8.450;2023-11-22T13:42:46;5.10;99.90
21815;DHT22;11069;48.988;8.450;2023-11-22T13:45:14;5.00;99.90
21815;DHT22;11069;48.988;8.450;2023-11-22T13:47:43;5.10;99.90
21815;DHT22;11069;48.988;8.450;2023-11-22T13:50:10;5.00;99.90
21815;DHT22;11069;48.988;8.450;2023-11-22T13:52:38;4.80;99.90
21815;DHT22;11069;48.988;8.450;2023-11-22T13:55:04;4.80;99.90
21815;DHT22;11069;48.988;8.450;2023-11-22T13:57:33;4.80;99.90
21815;DHT22;11069;48.988;8.450;2023-11-22T13:59:59;4.70;99.90
21815;DHT22;11069;48.988;8.450;2023-11-22T14:02:24;4.70;99.90
21815;DHT22;11069;48.988;8.450;2023-11-22T14:04:50;4.70;99.90
21815;DHT22;11069;48.988;8.450;2023-11-22T14:07:16;4.80;99.90
21815;DHT22;11069;48.988;8.450;2023-11-22T14:09:42;4.80;99.90
21815;DHT22;11069;48.988;8.450;2023-11-22T14:12:12;4.90;99.90
21815;DHT22;11069;48.988;8.450;2023-11-22T14:14:37;5.10;99.90
21815;DHT22;11069;48.988;8.450;2023-11-22T14:17:03;4.90;99.90
21815;DHT22;11069;48.988;8.450;2023-11-22T14:19:29;4.90;99.90
21815;DHT22;11069;48.988;8.450;2023-11-22T14:21:54;4.90;99.90
21815;DHT22;11069;48.988;8.450;2023-11-22T14:24:20;4.70;99.90
21815;DHT22;11069;48.988;8.450;2023-11-22T14:26:46;4.80;99.90
21815;DHT22;11069;48.988;8.450;2023-11-22T14:29:14;4.80;99.90
21815;DHT22;11069;48.988;8.450;2023-11-22T14:31:40;4.90;99.90
21815;DHT22;11069;48.988;8.450;2023-11-22T14:34:06;4.80;99.90
21815;DHT22;11069;48.988;8.450;2023-11-22T14:36:32;4.90;99.90
21815;DHT22;11069;48.988;8.450;2023-11-22T14:38:57;4.90;99.90
21815;DHT22;11069;48.988;8.450;2023-11-22T14:41:23;4.80;99.90
21815;DHT22;11069;48.988;8.450;2023-11-22T14:43:49;4.70;99.90
21815;DHT22;11069;48.988;8.450;2023-11-22T14:46:15;4.70;99.90
21815;DHT22;11069;48.988;8.450;2023-11-22T14:48:41;4.70;99.90
21815;DHT22;11069;48.988;8.450;2023-11-22T14:51:14;4.60;99.90
21815;DHT22;11069;48.988;8.450;2023-11-22T14:53:39;4.50;99.90
21815;DHT22;11069;48.988;8.450;2023-11-22T14:56:09;4.40;99.90
21815;DHT22;11069;48.988;8.450;2023-11-22T14:58:35;4.40;99.90
21815;DHT22;11069;48.988;8.450;2023-11-22T15:01:01;4.50;99.90
21815;DHT22;11069;48.988;8.450;2023-11-22T15:03:29;4.40;99.90
21815;DHT22;11069;48.988;8.450;2023-11-22T15:05:56;4.40;99.90
21815;DHT22;11069;48.988;8.450;2023-11-22T15:08:23;4.50;99.90
21815;DHT22;11069;48.988;8.450;2023-11-22T15:10:56;4.50;99.90
21815;DHT22;11069;48.988;8.450;2023-11-22T15:13:22;4.50;99.90
21815;DHT22;11069;48.988;8.450;2023-11-22T15:15:47;4.60;99.90
21815;DHT22;11069;48.988;8.450;2023-11-22T15:18:13;4.50;99.90
21815;DHT22;11069;48.988;8.450;2023-11-22T15:20:38;4.60;99.90
21815;DHT22;11069;48.988;8.450;2023-11-22T15:23:04;4.50;99.90
21815;DHT22;11069;48.988;8.450;2023-11-22T15:25:31;4.60;99.90
21815;DHT22;11069;48.988;8.450;2023-11-22T15:27:56;4.50;99.90
21815;DHT22;11069;48.988;8.450;2023-11-22T15:30:25;4.50;99.90
21815;DHT22;11069;48.988;8.450;2023-11-22T15:32:50;4.40;99.90
21815;DHT22;11069;48.988;8.450;2023-11-22T15:35:16;4.40;99.90
21815;DHT22;11069;48.988;8.450;2023-11-22T15:37:43;4.30;99.90
21815;DHT22;11069;48.988;8.450;2023-11-22T15:40:08;4.40;99.90
21815;DHT22;11069;48.988;8.450;2023-11-22T15:42:38;4.30;99.90
21815;DHT22;11069;48.988;8.450;2023-11-22T15:45:04;4.30;99.90
21815;DHT22;11069;48.988;8.450;2023-11-22T15:47:30;4.30;99.90
21815;DHT22;11069;48.988;8.450;2023-11-22T15:49:55;4.20;99.90